Time;durP1;ratioP1;P1;durP2;ratioP2;P2;SDS_P1;SDS_P2;PMS_P1;PMS_P2;Temp;Humidity;BMP_temperature;BMP_pressure;BME280_temperature;BME280_humidity;BME280_pressure;Samples;Min_cycle;Max_cycle;Signal;HPM_P1;HPM_P2
2022/03/31 00:00:34;;;;;;;;;;;;;;;;;;5090591;28;19909;-48
2022/03/31 00:03:00;;;;;;;;;;;;;;;;;;5089647;28;19916;-52
2022/03/31 00:05:27;;;;;;;;;;;;;;;;;;5090829;28;20456;-52
2022/03/31 00:07:53;;;;;;;;;;;;;;;;;;5092059;28;20255;-55
2022/03/31 00:10:20;;;;;;;;;;;;;;;;;;5092148;28;19966;-56
2022/03/31 00:12:46;;;;;;;;;;;;;;;;;;5092368;28;20251;-52
2022/03/31 00:15:13;;;;;;;;;;;;;;;;;;5091877;28;19999;-55
2022/03/31 00:17:39;;;;;;;;;;;;;;;;;;5091467;28;19908;-53
2022/03/31 00:20:06;;;;;;;;;;;;;;;;;;5092132;28;20362;-55
2022/03/31 00:22:32;;;;;;;;;;;;;;;;;;5092086;28;20354;-53
2022/03/31 00:24:59;;;;;;;;;;;;;;;;;;5091820;28;19967;-54
2022/03/31 00:27:25;;;;;;;;;;;;;;;;;;5092213;28;19943;-51
2022/03/31 00:29:52;;;;;;;;;;;;;;;;;;5091931;28;19927;-53
2022/03/31 00:32:18;;;;;;;;;;;;;;;;;;5091434;28;19923;-52
2022/03/31 00:34:45;;;;;;;;;;;;;;;;;;5092174;28;19912;-50
2022/03/31 00:37:11;;;;;;;;;;;;;;;;;;5092446;28;19912;-54
2022/03/31 00:39:38;;;;;;;;;;;;;;;;;;5092015;28;19912;-50
2022/03/31 00:42:04;;;;;;;;;;;;;;;;;;5090200;28;20325;-51
2022/03/31 00:44:31;;;;;;;;;;;;;;;;;;5091847;28;19927;-55
2022/03/31 00:46:57;;;;;;;;;;;;;;;;;;5091972;28;19912;-58
2022/03/31 00:49:24;;;;;;;;;;;;;;;;;;5091856;28;19908;-54
2022/03/31 00:51:50;;;;;;;;;;;;;;;;;;5092091;28;19915;-59
2022/03/31 00:54:17;;;;;;;;;;;;;;;;;;5092017;28;19916;-48
2022/03/31 00:56:43;;;;;;;;;;;;;;;;;;5091988;28;19951;-54
2022/03/31 00:59:10;;;;;;;;;;;;;;;;;;5101699;28;20007;-48
2022/03/31 01:01:37;;;;;;;;;;;;;;;;;;5112274;28;20022;-51
2022/03/31 01:04:03;;;;;;;;;;;;;;;;;;5115268;28;19931;-47
2022/03/31 01:06:30;;;;;;;;;;;;;;;;;;5102573;28;20385;-53
2022/03/31 01:08:57;;;;;;;;;;;;;;;;;;5095550;28;19912;-52
2022/03/31 01:11:23;;;;;;;;;;;;;;;;;;5095519;28;19912;-50
2022/03/31 01:13:50;;;;;;;;;;;;;;;;;;5094954;28;20358;-54
2022/03/31 01:16:16;;;;;;;;;;;;;;;;;;5095479;28;19919;-50
2022/03/31 01:18:43;;;;;;;;;;;;;;;;;;5095474;28;19916;-44
2022/03/31 01:21:12;;;;;;;;;;;;;;;;;;5095004;28;19935;-50
2022/03/31 01:23:38;;;;;;;;;;;;;;;;;;5094939;28;19908;-48
2022/03/31 01:26:05;;;;;;;;;;;;;;;;;;5095826;28;19921;-48
2022/03/31 01:28:31;;;;;;;;;;;;;;;;;;5116280;28;20003;-46
2022/03/31 01:30:58;;;;;;;;;;;;;;;;;;5115330;28;19915;-51
2022/03/31 01:33:24;;;;;;;;;;;;;;;;;;5115546;28;19957;-48
2022/03/31 01:35:51;;;;;;;;;;;;;;;;;;5115804;28;20036;-44
2022/03/31 01:38:18;;;;;;;;;;;;;;;;;;5114765;28;19914;-51
2022/03/31 01:40:45;;;;;;;;;;;;;;;;;;5094403;28;19908;-57
2022/03/31 01:43:11;;;;;;;;;;;;;;;;;;5095193;28;19916;-58
2022/03/31 01:45:38;;;;;;;;;;;;;;;;;;5094363;28;19927;-56
2022/03/31 01:48:04;;;;;;;;;;;;;;;;;;5108711;28;19907;-46
2022/03/31 01:50:31;;;;;;;;;;;;;;;;;;5115831;28;20346;-49
2022/03/31 01:52:57;;;;;;;;;;;;;;;;;;5095125;28;20219;-58
2022/03/31 01:55:25;;;;;;;;;;;;;;;;;;5095279;28;19915;-52
2022/03/31 01:57:51;;;;;;;;;;;;;;;;;;5094965;28;20331;-53
2022/03/31 02:00:18;;;;;;;;;;;;;;;;;;5094437;28;20290;-53
2022/03/31 02:02:44;;;;;;;;;;;;;;;;;;5094035;28;20224;-55
2022/03/31 02:05:11;;;;;;;;;;;;;;;;;;5094195;28;19923;-48
2022/03/31 02:07:38;;;;;;;;;;;;;;;;;;5093625;28;19909;-51
2022/03/31 02:10:05;;;;;;;;;;;;;;;;;;5094410;28;19920;-53
2022/03/31 02:12:31;;;;;;;;;;;;;;;;;;5094191;28;19919;-54
2022/03/31 02:14:57;;;;;;;;;;;;;;;;;;5093416;28;19947;-56
2022/03/31 02:17:24;;;;;;;;;;;;;;;;;;5094347;28;20362;-58
2022/03/31 02:19:50;;;;;;;;;;;;;;;;;;5094420;28;20379;-55
2022/03/31 02:22:17;;;;;;;;;;;;;;;;;;5094928;28;19951;-57
2022/03/31 02:24:44;;;;;;;;;;;;;;;;;;5094369;28;20378;-57
2022/03/31 02:27:11;;;;;;;;;;;;;;;;;;5093536;28;19957;-57
2022/03/31 02:29:38;;;;;;;;;;;;;;;;;;5094319;28;20418;-54
2022/03/31 02:32:06;;;;;;;;;;;;;;;;;;5094504;28;19912;-57
2022/03/31 02:34:32;;;;;;;;;;;;;;;;;;5093915;28;19908;-52
2022/03/31 02:36:58;;;;;;;;;;;;;;;;;;5094330;28;19912;-58
2022/03/31 02:39:25;;;;;;;;;;;;;;;;;;5094170;28;20027;-46
2022/03/31 02:41:52;;;;;;;;;;;;;;;;;;5093555;28;19936;-47
2022/03/31 02:44:18;;;;;;;;;;;;;;;;;;5092619;28;19916;-54
2022/03/31 02:46:44;;;;;;;;;;;;;;;;;;5101521;28;19918;-57
2022/03/31 02:49:11;;;;;;;;;;;;;;;;;;5093474;28;19973;-52
2022/03/31 02:51:37;;;;;;;;;;;;;;;;;;5093149;28;19916;-54
2022/03/31 02:56:48;;;;;;;;;;;;;;;;;;5093130;28;19966;-54
2022/03/31 02:59:15;;;;;;;;;;;;;;;;;;5092112;28;19908;-47
2022/03/31 03:01:44;;;;;;;;;;;;;;;;;;5084591;28;20018;-45
2022/03/31 03:04:11;;;;;;;;;;;;;;;;;;5091141;28;19931;-40
2022/03/31 03:06:37;;;;;;;;;;;;;;;;;;5092466;28;19957;-42
2022/03/31 03:09:04;;;;;;;;;;;;;;;;;;5091734;28;19908;-41
2022/03/31 03:11:30;;;;;;;;;;;;;;;;;;5081595;28;19916;-51
2022/03/31 03:13:57;;;;;;;;;;;;;;;;;;5077898;28;19973;-40
2022/03/31 03:16:25;;;;;;;;;;;;;;;;;;5081726;28;20013;-45
2022/03/31 03:18:52;;;;;;;;;;;;;;;;;;5079162;28;19916;-41
2022/03/31 03:21:19;;;;;;;;;;;;;;;;;;5072827;28;19920;-43
2022/03/31 03:23:46;;;;;;;;;;;;;;;;;;5080386;28;19912;-41
2022/03/31 03:26:12;;;;;;;;;;;;;;;;;;5078771;28;19930;-40
2022/03/31 03:28:39;;;;;;;;;;;;;;;;;;5079619;28;19916;-42
2022/03/31 03:31:06;;;;;;;;;;;;;;;;;;5084301;28;19912;-44
2022/03/31 03:33:32;;;;;;;;;;;;;;;;;;5090502;28;19908;-48
2022/03/31 03:35:59;;;;;;;;;;;;;;;;;;5090626;28;19912;-42
2022/03/31 03:38:26;;;;;;;;;;;;;;;;;;5090937;28;19912;-51
2022/03/31 03:40:52;;;;;;;;;;;;;;;;;;5085159;28;19908;-44
2022/03/31 03:43:19;;;;;;;;;;;;;;;;;;5091129;28;19952;-46
2022/03/31 03:45:45;;;;;;;;;;;;;;;;;;5090801;28;19943;-42
2022/03/31 03:48:12;;;;;;;;;;;;;;;;;;5090791;28;19908;-41
2022/03/31 03:50:38;;;;;;;;;;;;;;;;;;5084535;28;19908;-42
2022/03/31 03:53:05;;;;;;;;;;;;;;;;;;5090888;28;19952;-42
2022/03/31 03:55:31;;;;;;;;;;;;;;;;;;5090570;28;19919;-48
2022/03/31 03:57:58;;;;;;;;;;;;;;;;;;5090912;28;19952;-52
2022/03/31 04:00:24;;;;;;;;;;;;;;;;;;5085690;28;19922;-46
2022/03/31 04:02:51;;;;;;;;;;;;;;;;;;5089752;28;19923;-43
2022/03/31 04:05:17;;;;;;;;;;;;;;;;;;5089381;28;20319;-45
2022/03/31 04:07:44;;;;;;;;;;;;;;;;;;5090178;28;19947;-41
2022/03/31 04:10:11;;;;;;;;;;;;;;;;;;5091967;28;19919;-48
2022/03/31 04:12:38;;;;;;;;;;;;;;;;;;5092026;28;19908;-52
2022/03/31 04:15:04;;;;;;;;;;;;;;;;;;5090635;28;19915;-52
2022/03/31 04:17:31;;;;;;;;;;;;;;;;;;5091850;28;19912;-52
2022/03/31 04:19:57;;;;;;;;;;;;;;;;;;5092310;28;19908;-50
2022/03/31 04:22:24;;;;;;;;;;;;;;;;;;5092430;28;19908;-56
2022/03/31 04:24:50;;;;;;;;;;;;;;;;;;5092229;28;20379;-55
2022/03/31 04:27:17;;;;;;;;;;;;;;;;;;5092132;28;20228;-56
2022/03/31 04:29:43;;;;;;;;;;;;;;;;;;5092325;28;20270;-55
2022/03/31 04:32:10;;;;;;;;;;;;;;;;;;5091908;28;19915;-46
2022/03/31 04:34:36;;;;;;;;;;;;;;;;;;5091357;28;19916;-48
2022/03/31 04:37:03;;;;;;;;;;;;;;;;;;5093191;28;20293;-47
2022/03/31 04:39:29;;;;;;;;;;;;;;;;;;5095328;28;19915;-53
2022/03/31 04:41:56;;;;;;;;;;;;;;;;;;5095431;28;19908;-52
2022/03/31 04:44:22;;;;;;;;;;;;;;;;;;5095907;28;20351;-51
2022/03/31 04:46:49;;;;;;;;;;;;;;;;;;5091610;28;20010;-42
2022/03/31 04:49:15;;;;;;;;;;;;;;;;;;5091317;28;20228;-43
2022/03/31 04:51:42;;;;;;;;;;;;;;;;;;5093960;28;19908;-40
2022/03/31 04:54:08;;;;;;;;;;;;;;;;;;5095546;28;19908;-44
2022/03/31 04:56:35;;;;;;;;;;;;;;;;;;5094364;28;20003;-40
2022/03/31 04:59:01;;;;;;;;;;;;;;;;;;5091888;28;19916;-40
2022/03/31 05:01:28;;;;;;;;;;;;;;;;;;5093340;28;19915;-43
2022/03/31 05:03:54;;;;;;;;;;;;;;;;;;5092809;28;19936;-52
2022/03/31 05:06:21;;;;;;;;;;;;;;;;;;5093960;28;19989;-55
2022/03/31 05:08:47;;;;;;;;;;;;;;;;;;5090089;28;20373;-53
2022/03/31 05:11:14;;;;;;;;;;;;;;;;;;5093948;28;19994;-53
2022/03/31 05:13:40;;;;;;;;;;;;;;;;;;5093995;28;19935;-52
2022/03/31 05:16:07;;;;;;;;;;;;;;;;;;5094202;28;19908;-50
2022/03/31 05:18:33;;;;;;;;;;;;;;;;;;5088444;28;20383;-46
2022/03/31 05:21:00;;;;;;;;;;;;;;;;;;5094051;28;19908;-54
2022/03/31 05:23:26;;;;;;;;;;;;;;;;;;5093318;28;19909;-42
2022/03/31 05:25:53;;;;;;;;;;;;;;;;;;5094151;28;19916;-41
2022/03/31 05:28:19;;;;;;;;;;;;;;;;;;5088646;28;19915;-43
2022/03/31 05:30:46;;;;;;;;;;;;;;;;;;5093438;28;19919;-47
2022/03/31 05:33:12;;;;;;;;;;;;;;;;;;5093671;28;19908;-41
2022/03/31 05:35:38;;;;;;;;;;;;;;;;;;5093799;28;19915;-55
2022/03/31 05:38:06;;;;;;;;;;;;;;;;;;5088873;28;20362;-42
2022/03/31 05:40:34;;;;;;;;;;;;;;;;;;5093451;28;19912;-42
2022/03/31 05:43:00;;;;;;;;;;;;;;;;;;5092319;28;19909;-43
2022/03/31 05:45:27;;;;;;;;;;;;;;;;;;5093039;28;19927;-43
2022/03/31 05:47:54;;;;;;;;;;;;;;;;;;5087140;28;19995;-42
2022/03/31 05:50:20;;;;;;;;;;;;;;;;;;5092584;28;19995;-43
2022/03/31 05:52:47;;;;;;;;;;;;;;;;;;5093070;28;20235;-54
2022/03/31 05:55:13;;;;;;;;;;;;;;;;;;5093916;28;19964;-42
2022/03/31 05:57:40;;;;;;;;;;;;;;;;;;5086260;28;19912;-46
2022/03/31 06:00:06;;;;;;;;;;;;;;;;;;5093817;28;20300;-40
2022/03/31 06:02:33;;;;;;;;;;;;;;;;;;5092999;28;20373;-40
2022/03/31 06:04:59;;;;;;;;;;;;;;;;;;5093163;28;20383;-46
2022/03/31 06:07:26;;;;;;;;;;;;;;;;;;5087017;28;20686;-43
2022/03/31 06:09:52;;;;;;;;;;;;;;;;;;5092545;28;19908;-42
2022/03/31 06:12:19;;;;;;;;;;;;;;;;;;5092526;28;19908;-47
2022/03/31 06:14:46;;;;;;;;;;;;;;;;;;5093182;28;19939;-39
2022/03/31 06:17:12;;;;;;;;;;;;;;;;;;5087606;28;19912;-43
2022/03/31 06:19:39;;;;;;;;;;;;;;;;;;5092074;28;19915;-46
2022/03/31 06:22:05;;;;;;;;;;;;;;;;;;5092252;28;19973;-44
2022/03/31 06:24:32;;;;;;;;;;;;;;;;;;5091940;28;19916;-44
2022/03/31 06:27:00;;;;;;;;;;;;;;;;;;5091000;28;19916;-39
2022/03/31 06:29:27;;;;;;;;;;;;;;;;;;5087890;28;19908;-44
2022/03/31 06:31:56;;;;;;;;;;;;;;;;;;5092286;28;20282;-43
2022/03/31 06:34:23;;;;;;;;;;;;;;;;;;5091948;28;19997;-41
2022/03/31 06:36:49;;;;;;;;;;;;;;;;;;5093087;28;19908;-55
2022/03/31 06:39:15;;;;;;;;;;;;;;;;;;5093555;28;20378;-49
2022/03/31 06:41:42;;;;;;;;;;;;;;;;;;5093049;28;20329;-46
2022/03/31 06:44:13;;;;;;;;;;;;;;;;;;5093546;28;20365;-56
2022/03/31 06:46:39;;;;;;;;;;;;;;;;;;5093654;28;19930;-56
2022/03/31 06:49:06;;;;;;;;;;;;;;;;;;5093677;28;19915;-55
2022/03/31 06:51:32;;;;;;;;;;;;;;;;;;5093695;28;19915;-51
2022/03/31 06:53:59;;;;;;;;;;;;;;;;;;5093852;28;19908;-52
2022/03/31 06:56:27;;;;;;;;;;;;;;;;;;5093633;28;20003;-54
2022/03/31 06:58:53;;;;;;;;;;;;;;;;;;5089284;28;20250;-51
2022/03/31 07:01:20;;;;;;;;;;;;;;;;;;5093568;28;20334;-54
2022/03/31 07:03:46;;;;;;;;;;;;;;;;;;5091981;28;19924;-53
2022/03/31 07:06:14;;;;;;;;;;;;;;;;;;5091741;28;19916;-45
2022/03/31 07:08:40;;;;;;;;;;;;;;;;;;5091004;28;19908;-51
2022/03/31 07:11:07;;;;;;;;;;;;;;;;;;5093291;28;19909;-54
2022/03/31 07:13:34;;;;;;;;;;;;;;;;;;5092378;28;19908;-45
2022/03/31 07:16:00;;;;;;;;;;;;;;;;;;5092780;28;19908;-49
2022/03/31 07:18:27;;;;;;;;;;;;;;;;;;5092188;28;20331;-53
2022/03/31 07:20:53;;;;;;;;;;;;;;;;;;5092190;28;20360;-54
2022/03/31 07:23:20;;;;;;;;;;;;;;;;;;5092354;28;20372;-42
2022/03/31 07:25:47;;;;;;;;;;;;;;;;;;5093152;28;19916;-43
2022/03/31 07:28:14;;;;;;;;;;;;;;;;;;5093466;28;19923;-40
2022/03/31 07:30:41;;;;;;;;;;;;;;;;;;5084252;28;19916;-41
2022/03/31 07:33:08;;;;;;;;;;;;;;;;;;5092156;28;19909;-50
2022/03/31 07:35:37;;;;;;;;;;;;;;;;;;5088990;28;20326;-43
2022/03/31 07:38:03;;;;;;;;;;;;;;;;;;5089954;28;20377;-45
2022/03/31 07:40:30;;;;;;;;;;;;;;;;;;5086862;28;19908;-43
2022/03/31 07:42:57;;;;;;;;;;;;;;;;;;5090552;28;20320;-43
2022/03/31 07:45:23;;;;;;;;;;;;;;;;;;5090188;28;20246;-48
2022/03/31 07:47:50;;;;;;;;;;;;;;;;;;5091525;28;19923;-43
2022/03/31 07:50:16;;;;;;;;;;;;;;;;;;5086805;28;19908;-46
2022/03/31 07:52:43;;;;;;;;;;;;;;;;;;5090687;28;19915;-40
2022/03/31 07:55:09;;;;;;;;;;;;;;;;;;5091005;28;19909;-44
2022/03/31 07:57:36;;;;;;;;;;;;;;;;;;5089421;28;19912;-46
2022/03/31 08:00:03;;;;;;;;;;;;;;;;;;5085995;28;19908;-46
2022/03/31 08:02:29;;;;;;;;;;;;;;;;;;5090596;28;19912;-48
2022/03/31 08:04:56;;;;;;;;;;;;;;;;;;5090279;28;19964;-48
2022/03/31 08:07:22;;;;;;;;;;;;;;;;;;5090625;28;19908;-44
2022/03/31 08:09:49;;;;;;;;;;;;;;;;;;5085249;28;19953;-46
2022/03/31 08:12:15;;;;;;;;;;;;;;;;;;5090117;28;20271;-44
2022/03/31 08:14:41;;;;;;;;;;;;;;;;;;5090519;28;19908;-44
2022/03/31 08:17:08;;;;;;;;;;;;;;;;;;5090309;28;19983;-44
2022/03/31 08:19:35;;;;;;;;;;;;;;;;;;5084353;28;19920;-43
2022/03/31 08:22:01;;;;;;;;;;;;;;;;;;5090681;28;20409;-48
2022/03/31 08:24:28;;;;;;;;;;;;;;;;;;5091124;28;19918;-40
2022/03/31 08:26:54;;;;;;;;;;;;;;;;;;5090156;28;19969;-45
2022/03/31 08:29:21;;;;;;;;;;;;;;;;;;5085006;28;19916;-42
2022/03/31 08:31:47;;;;;;;;;;;;;;;;;;5090425;28;20003;-48
2022/03/31 08:34:14;;;;;;;;;;;;;;;;;;5090127;28;20063;-50
2022/03/31 08:36:40;;;;;;;;;;;;;;;;;;5089373;28;19915;-42
2022/03/31 08:39:07;;;;;;;;;;;;;;;;;;5087556;28;19915;-45
2022/03/31 08:41:33;;;;;;;;;;;;;;;;;;5089102;28;19908;-41
2022/03/31 08:44:00;;;;;;;;;;;;;;;;;;5089719;28;19912;-43
2022/03/31 08:46:26;;;;;;;;;;;;;;;;;;5088509;28;19927;-41
2022/03/31 08:48:53;;;;;;;;;;;;;;;;;;5088270;28;20366;-41
2022/03/31 08:51:19;;;;;;;;;;;;;;;;;;5082652;28;19930;-41
2022/03/31 08:53:46;;;;;;;;;;;;;;;;;;5090137;28;19922;-44
2022/03/31 08:56:12;;;;;;;;;;;;;;;;;;5088296;28;20377;-42
2022/03/31 08:58:39;;;;;;;;;;;;;;;;;;5087833;28;20739;-41
2022/03/31 09:01:05;;;;;;;;;;;;;;;;;;5084042;28;19908;-46
2022/03/31 09:03:32;;;;;;;;;;;;;;;;;;5091772;28;19964;-56
2022/03/31 09:05:58;;;;;;;;;;;;;;;;;;5092329;28;19916;-47
2022/03/31 09:08:25;;;;;;;;;;;;;;;;;;5092303;28;19961;-48
2022/03/31 09:10:53;;;;;;;;;;;;;;;;;;5092446;28;19923;-47
2022/03/31 09:13:19;;;;;;;;;;;;;;;;;;5092364;28;19995;-56
2022/03/31 09:15:46;;;;;;;;;;;;;;;;;;5091870;28;19959;-50
2022/03/31 09:18:12;;;;;;;;;;;;;;;;;;5083255;28;19961;-42
2022/03/31 09:20:39;;;;;;;;;;;;;;;;;;5090233;28;19912;-42
2022/03/31 09:23:05;;;;;;;;;;;;;;;;;;5091219;28;19914;-44
2022/03/31 09:25:32;;;;;;;;;;;;;;;;;;5089822;28;19923;-48
2022/03/31 09:28:01;;;;;;;;;;;;;;;;;;5091187;28;19908;-57
2022/03/31 09:30:27;;;;;;;;;;;;;;;;;;5093865;28;19908;-46
2022/03/31 09:32:54;;;;;;;;;;;;;;;;;;5091374;28;19924;-40
2022/03/31 09:35:20;;;;;;;;;;;;;;;;;;5091908;28;19955;-42
2022/03/31 09:37:49;;;;;;;;;;;;;;;;;;5093260;28;20031;-41
2022/03/31 09:40:15;;;;;;;;;;;;;;;;;;5094048;28;19908;-42
2022/03/31 09:42:42;;;;;;;;;;;;;;;;;;5094120;28;19912;-49
2022/03/31 09:45:10;;;;;;;;;;;;;;;;;;5089935;28;19916;-43
2022/03/31 09:47:36;;;;;;;;;;;;;;;;;;5092845;28;19916;-44
2022/03/31 09:50:03;;;;;;;;;;;;;;;;;;5094075;28;19929;-51
2022/03/31 09:52:29;;;;;;;;;;;;;;;;;;5092164;28;20284;-47
2022/03/31 09:54:55;;;;;;;;;;;;;;;;;;5088640;28;20371;-41
2022/03/31 09:57:22;;;;;;;;;;;;;;;;;;5092749;28;20316;-43
2022/03/31 09:59:48;;;;;;;;;;;;;;;;;;5093588;28;19908;-43
2022/03/31 10:02:15;;;;;;;;;;;;;;;;;;5093835;28;19915;-44
2022/03/31 10:04:41;;;;;;;;;;;;;;;;;;5087954;28;20017;-49
2022/03/31 10:07:08;;;;;;;;;;;;;;;;;;5092557;28;20374;-44
2022/03/31 10:09:36;;;;;;;;;;;;;;;;;;5093410;28;20285;-43
2022/03/31 10:12:03;;;;;;;;;;;;;;;;;;5094028;28;20263;-45
2022/03/31 10:14:30;;;;;;;;;;;;;;;;;;5089747;28;19959;-41
2022/03/31 10:16:57;;;;;;;;;;;;;;;;;;5092386;28;19922;-44
2022/03/31 10:19:23;;;;;;;;;;;;;;;;;;5093540;28;19947;-45
2022/03/31 10:21:50;;;;;;;;;;;;;;;;;;5093706;28;19908;-48
2022/03/31 10:27:01;;;;;;;;;;;;;;;;;;5090322;28;19990;-43
2022/03/31 10:29:28;;;;;;;;;;;;;;;;;;5093068;28;20247;-49
2022/03/31 10:31:56;;;;;;;;;;;;;;;;;;5093404;28;20382;-43
2022/03/31 10:34:22;;;;;;;;;;;;;;;;;;5090599;28;19908;-40
2022/03/31 10:36:49;;;;;;;;;;;;;;;;;;5090591;28;19908;-42
2022/03/31 10:39:15;;;;;;;;;;;;;;;;;;5091910;28;19912;-40
2022/03/31 10:41:44;;;;;;;;;;;;;;;;;;5092990;28;19955;-41
2022/03/31 10:44:10;;;;;;;;;;;;;;;;;;5092279;28;20266;-39
2022/03/31 10:46:36;;;;;;;;;;;;;;;;;;5085570;28;20336;-42
2022/03/31 10:49:07;;;;;;;;;;;;;;;;;;5092492;28;19908;-39
2022/03/31 10:51:33;;;;;;;;;;;;;;;;;;5092452;28;20262;-51
2022/03/31 10:54:00;;;;;;;;;;;;;;;;;;5092917;28;19947;-42
2022/03/31 10:56:26;;;;;;;;;;;;;;;;;;5087234;28;19915;-40
2022/03/31 10:58:52;;;;;;;;;;;;;;;;;;5091794;28;19972;-38
2022/03/31 11:01:19;;;;;;;;;;;;;;;;;;5092592;28;19915;-43
2022/03/31 11:03:46;;;;;;;;;;;;;;;;;;5092061;28;19924;-43
2022/03/31 11:06:13;;;;;;;;;;;;;;;;;;5086456;28;19915;-49
2022/03/31 11:08:40;;;;;;;;;;;;;;;;;;5091455;28;19909;-43
2022/03/31 11:11:06;;;;;;;;;;;;;;;;;;5092549;28;19953;-41
2022/03/31 11:13:33;;;;;;;;;;;;;;;;;;5091805;28;19995;-40
2022/03/31 11:16:01;;;;;;;;;;;;;;;;;;5086669;28;19938;-42
2022/03/31 11:18:27;;;;;;;;;;;;;;;;;;5091439;28;20038;-47
2022/03/31 11:20:53;;;;;;;;;;;;;;;;;;5092108;28;20007;-40
2022/03/31 11:23:20;;;;;;;;;;;;;;;;;;5092634;28;19915;-49
2022/03/31 11:25:47;;;;;;;;;;;;;;;;;;5092650;28;20335;-49
2022/03/31 11:28:14;;;;;;;;;;;;;;;;;;5093866;28;19991;-47
2022/03/31 11:30:40;;;;;;;;;;;;;;;;;;5093781;28;20313;-46
2022/03/31 11:33:10;;;;;;;;;;;;;;;;;;5094144;28;19908;-50
2022/03/31 11:35:36;;;;;;;;;;;;;;;;;;5093900;28;19912;-47
2022/03/31 11:38:03;;;;;;;;;;;;;;;;;;5093564;28;19999;-48
2022/03/31 11:40:29;;;;;;;;;;;;;;;;;;5093501;28;19908;-48
2022/03/31 11:42:56;;;;;;;;;;;;;;;;;;5093812;28;19908;-45
2022/03/31 11:45:22;;;;;;;;;;;;;;;;;;5093371;28;20018;-47
2022/03/31 11:47:50;;;;;;;;;;;;;;;;;;5087974;28;19915;-40
2022/03/31 11:50:17;;;;;;;;;;;;;;;;;;5090943;28;20390;-39
2022/03/31 11:52:45;;;;;;;;;;;;;;;;;;5085561;28;19920;-42
2022/03/31 11:55:11;;;;;;;;;;;;;;;;;;5093166;28;19919;-49
2022/03/31 11:57:38;;;;;;;;;;;;;;;;;;5091378;28;20404;-53
2022/03/31 12:00:04;;;;;;;;;;;;;;;;;;5092319;28;19914;-50
2022/03/31 12:02:30;;;;;;;;;;;;;;;;;;5093031;28;19916;-54
2022/03/31 12:04:57;;;;;;;;;;;;;;;;;;5091737;28;19924;-48
2022/03/31 12:07:27;;;;;;;;;;;;;;;;;;5091732;28;20226;-48
2022/03/31 12:09:53;;;;;;;;;;;;;;;;;;5093017;28;20424;-52
2022/03/31 12:12:20;;;;;;;;;;;;;;;;;;5093152;28;20274;-55
2022/03/31 12:14:46;;;;;;;;;;;;;;;;;;5092835;28;20278;-55
2022/03/31 12:17:13;;;;;;;;;;;;;;;;;;5093192;28;20292;-57
2022/03/31 12:19:39;;;;;;;;;;;;;;;;;;5092378;28;19961;-55
2022/03/31 12:22:06;;;;;;;;;;;;;;;;;;5091403;28;19943;-55
2022/03/31 12:24:32;;;;;;;;;;;;;;;;;;5090791;28;19912;-54
2022/03/31 12:26:59;;;;;;;;;;;;;;;;;;5092344;28;19908;-49
2022/03/31 12:29:25;;;;;;;;;;;;;;;;;;5091408;28;20062;-54
2022/03/31 12:31:52;;;;;;;;;;;;;;;;;;5093057;28;19930;-54
2022/03/31 12:34:21;;;;;;;;;;;;;;;;;;5085528;28;19965;-39
2022/03/31 12:36:48;;;;;;;;;;;;;;;;;;5093181;28;20274;-52
2022/03/31 12:39:14;;;;;;;;;;;;;;;;;;5091196;28;19912;-51
2022/03/31 12:41:42;;;;;;;;;;;;;;;;;;5092744;28;19908;-52
2022/03/31 12:44:08;;;;;;;;;;;;;;;;;;5093006;28;20351;-50
2022/03/31 12:46:34;;;;;;;;;;;;;;;;;;5092634;28;19916;-55
2022/03/31 12:49:01;;;;;;;;;;;;;;;;;;5092388;28;19912;-54
2022/03/31 12:51:28;;;;;;;;;;;;;;;;;;5092772;28;19908;-55
2022/03/31 12:53:54;;;;;;;;;;;;;;;;;;5092936;28;19914;-51
2022/03/31 12:56:21;;;;;;;;;;;;;;;;;;5092999;28;19909;-52
2022/03/31 12:58:47;;;;;;;;;;;;;;;;;;5095331;28;19908;-54
2022/03/31 13:01:15;;;;;;;;;;;;;;;;;;5091963;28;19920;-39
2022/03/31 13:03:46;;;;;;;;;;;;;;;;;;5095899;28;19924;-54
2022/03/31 13:06:12;;;;;;;;;;;;;;;;;;5096081;28;19970;-52
2022/03/31 13:08:39;;;;;;;;;;;;;;;;;;5090933;28;19955;-42
2022/03/31 13:11:05;;;;;;;;;;;;;;;;;;5094568;28;19908;-41
2022/03/31 13:13:31;;;;;;;;;;;;;;;;;;5078105;28;20331;-43
2022/03/31 13:15:58;;;;;;;;;;;;;;;;;;5096245;28;20351;-51
2022/03/31 13:18:24;;;;;;;;;;;;;;;;;;5091890;28;19912;-40
2022/03/31 13:20:51;;;;;;;;;;;;;;;;;;5096465;28;19919;-50
2022/03/31 13:23:17;;;;;;;;;;;;;;;;;;5090506;28;20025;-40
2022/03/31 13:25:46;;;;;;;;;;;;;;;;;;5097631;28;19916;-54
2022/03/31 13:28:12;;;;;;;;;;;;;;;;;;5091639;28;20087;-40
2022/03/31 13:30:39;;;;;;;;;;;;;;;;;;5096459;28;19947;-54
2022/03/31 13:33:05;;;;;;;;;;;;;;;;;;5090688;28;19916;-41
2022/03/31 13:35:32;;;;;;;;;;;;;;;;;;5095981;28;19923;-43
2022/03/31 13:37:58;;;;;;;;;;;;;;;;;;5090486;28;19955;-52
2022/03/31 13:40:25;;;;;;;;;;;;;;;;;;5096669;28;19923;-49
2022/03/31 13:42:53;;;;;;;;;;;;;;;;;;5091681;28;20000;-49
2022/03/31 13:45:20;;;;;;;;;;;;;;;;;;5090422;28;19966;-40
2022/03/31 13:47:46;;;;;;;;;;;;;;;;;;5092159;28;20374;-46
2022/03/31 13:50:13;;;;;;;;;;;;;;;;;;5095947;28;19962;-39
2022/03/31 13:52:39;;;;;;;;;;;;;;;;;;5093690;28;19920;-41
2022/03/31 13:55:06;;;;;;;;;;;;;;;;;;5091098;28;19911;-40
2022/03/31 14:03:02;;;;;;;;;;;;;;;;;;5089850;28;19927;-41
2022/03/31 14:05:28;;;;;;;;;;;;;;;;;;5093321;28;20406;-39
2022/03/31 14:07:56;;;;;;;;;;;;;;;;;;5090164;28;19965;-39
2022/03/31 14:10:22;;;;;;;;;;;;;;;;;;5094446;28;19920;-40
2022/03/31 14:12:49;;;;;;;;;;;;;;;;;;5091169;28;19915;-42
2022/03/31 14:15:16;;;;;;;;;;;;;;;;;;5091414;28;19987;-45
2022/03/31 14:17:42;;;;;;;;;;;;;;;;;;5092080;28;19914;-38
2022/03/31 14:20:09;;;;;;;;;;;;;;;;;;5092656;28;19912;-41
2022/03/31 14:22:36;;;;;;;;;;;;;;;;;;5094675;28;19915;-39
2022/03/31 14:25:03;;;;;;;;;;;;;;;;;;5090299;28;19991;-39
2022/03/31 14:27:30;;;;;;;;;;;;;;;;;;5094394;28;19908;-54
2022/03/31 14:29:56;;;;;;;;;;;;;;;;;;5088348;28;19958;-39
2022/03/31 14:32:23;;;;;;;;;;;;;;;;;;5094292;28;19909;-52
2022/03/31 14:34:49;;;;;;;;;;;;;;;;;;5089679;28;19919;-42
2022/03/31 14:37:17;;;;;;;;;;;;;;;;;;5094175;28;19912;-54
2022/03/31 14:39:46;;;;;;;;;;;;;;;;;;5088468;28;19912;-41
2022/03/31 14:42:13;;;;;;;;;;;;;;;;;;5093962;28;20350;-50
2022/03/31 14:44:40;;;;;;;;;;;;;;;;;;5087667;28;19923;-40
2022/03/31 14:47:06;;;;;;;;;;;;;;;;;;5093599;28;20026;-52
2022/03/31 14:49:33;;;;;;;;;;;;;;;;;;5089229;28;19908;-39
2022/03/31 14:51:59;;;;;;;;;;;;;;;;;;5093954;28;19920;-53
2022/03/31 14:54:26;;;;;;;;;;;;;;;;;;5088953;28;19915;-39
2022/03/31 14:56:56;;;;;;;;;;;;;;;;;;5092442;28;20002;-53
2022/03/31 14:59:22;;;;;;;;;;;;;;;;;;5089352;28;19967;-48
2022/03/31 15:01:49;;;;;;;;;;;;;;;;;;5093468;28;20248;-54
2022/03/31 15:04:17;;;;;;;;;;;;;;;;;;5094218;28;19927;-47
2022/03/31 15:06:43;;;;;;;;;;;;;;;;;;5093519;28;20020;-50
2022/03/31 15:14:30;;;;;;;;;;;;;;;;;;5094582;28;19908;-49
2022/03/31 15:14:41;;;;;;;;;;;;;;;;;;5094557;28;20049;-57
2022/03/31 15:17:08;;;;;;;;;;;;;;;;;;5094671;28;20260;-54
2022/03/31 15:19:34;;;;;;;;;;;;;;;;;;5094073;28;19991;-55
2022/03/31 15:22:01;;;;;;;;;;;;;;;;;;5093510;28;19908;-55
2022/03/31 15:24:29;;;;;;;;;;;;;;;;;;5094212;28;19916;-57
2022/03/31 15:26:56;;;;;;;;;;;;;;;;;;5094135;28;19946;-55
2022/03/31 15:29:22;;;;;;;;;;;;;;;;;;5092919;28;19963;-53
2022/03/31 15:31:49;;;;;;;;;;;;;;;;;;5093763;28;20379;-53
2022/03/31 15:34:15;;;;;;;;;;;;;;;;;;5094030;28;19991;-52
2022/03/31 15:36:44;;;;;;;;;;;;;;;;;;5093977;28;19916;-52
2022/03/31 15:39:10;;;;;;;;;;;;;;;;;;5093964;28;19916;-55
2022/03/31 15:41:37;;;;;;;;;;;;;;;;;;5093725;28;19961;-42
2022/03/31 15:44:03;;;;;;;;;;;;;;;;;;5093805;28;19915;-42
2022/03/31 15:46:30;;;;;;;;;;;;;;;;;;5093928;28;19916;-45
2022/03/31 15:48:56;;;;;;;;;;;;;;;;;;5093863;28;19908;-49
2022/03/31 15:51:23;;;;;;;;;;;;;;;;;;5093725;28;19915;-47
2022/03/31 15:53:49;;;;;;;;;;;;;;;;;;5093644;28;19969;-43
2022/03/31 15:56:16;;;;;;;;;;;;;;;;;;5093670;28;19908;-48
2022/03/31 15:58:42;;;;;;;;;;;;;;;;;;5093465;28;20002;-47
2022/03/31 16:01:09;;;;;;;;;;;;;;;;;;5093887;28;19908;-48
2022/03/31 16:03:35;;;;;;;;;;;;;;;;;;5092080;28;19916;-49
2022/03/31 16:06:01;;;;;;;;;;;;;;;;;;5093922;28;19942;-49
2022/03/31 16:08:28;;;;;;;;;;;;;;;;;;5093870;28;19934;-47
2022/03/31 16:10:55;;;;;;;;;;;;;;;;;;5093718;28;19995;-42
2022/03/31 16:13:21;;;;;;;;;;;;;;;;;;5093520;28;19930;-49
2022/03/31 16:15:47;;;;;;;;;;;;;;;;;;5093316;28;19908;-45
2022/03/31 16:18:14;;;;;;;;;;;;;;;;;;5093427;28;19980;-54
2022/03/31 16:20:41;;;;;;;;;;;;;;;;;;5093434;28;19908;-55
2022/03/31 16:25:52;;;;;;;;;;;;;;;;;;5093403;28;19927;-49
2022/03/31 16:28:19;;;;;;;;;;;;;;;;;;5093153;28;19930;-51
2022/03/31 16:30:49;;;;;;;;;;;;;;;;;;5093232;28;19983;-50
2022/03/31 16:33:15;;;;;;;;;;;;;;;;;;5094963;28;20385;-49
2022/03/31 16:35:42;;;;;;;;;;;;;;;;;;5097281;28;19908;-51
2022/03/31 16:38:08;;;;;;;;;;;;;;;;;;5097350;28;19969;-52
2022/03/31 16:40:35;;;;;;;;;;;;;;;;;;5097442;28;20324;-50
2022/03/31 16:43:01;;;;;;;;;;;;;;;;;;5097159;28;19916;-54
2022/03/31 16:45:28;;;;;;;;;;;;;;;;;;5097028;28;19960;-54
2022/03/31 16:47:54;;;;;;;;;;;;;;;;;;5097273;28;20284;-46
2022/03/31 16:50:20;;;;;;;;;;;;;;;;;;5095812;28;20278;-39
2022/03/31 16:52:47;;;;;;;;;;;;;;;;;;5095929;28;19912;-48
2022/03/31 16:55:13;;;;;;;;;;;;;;;;;;5097200;28;20009;-47
2022/03/31 16:57:40;;;;;;;;;;;;;;;;;;5096908;28;19931;-51